NAP weather

Naples International Airport
NĂ¡poli, Campania, Italy

Public forecast

Using degrees Celsius for public forecast. Weather courtesy of forecast.io.

Current aviation weather report (METAR) for Naples International Airport

Retrieved 2019/10/16 05:20 UTC (17 minutes ago):

LIRN 160520Z VRB02KT 9999 FEW030 SCT080 17/16 Q1017 NOSIG

Aviation forecast (TAF) for Naples International Airport

Retrieved 2019-10-16 00:00 UTC (6 hours ago):

TAF LIRN 152300Z 1600/1624 22010KT 9999 BKN040 TEMPO 1600/1603 TSRA BECMG 1606/1608 28010KT